createdAt,value
2018-02-10T00:02:20.632Z,29.40
2018-02-10T00:04:46.880Z,30.23
2018-02-10T00:07:14.769Z,29.23
2018-02-10T00:09:41.014Z,28.67
2018-02-10T00:12:07.998Z,26.90
2018-02-10T00:14:34.773Z,24.70
2018-02-10T00:17:01.336Z,29.00
2018-02-10T00:19:28.097Z,20.60
2018-02-10T00:21:55.529Z,29.50
2018-02-10T00:24:21.782Z,28.53
2018-02-10T00:26:49.286Z,28.00
2018-02-10T00:29:15.573Z,27.30
2018-02-10T00:31:42.205Z,26.73
2018-02-10T00:34:08.966Z,27.57
2018-02-10T00:36:37.053Z,25.23
2018-02-10T00:39:04.085Z,25.80
2018-02-10T00:41:30.334Z,28.17
2018-02-10T00:43:57.760Z,26.07
2018-02-10T00:46:24.857Z,27.20
2018-02-10T00:48:52.417Z,26.60
2018-02-10T00:51:19.457Z,27.13
2018-02-10T00:53:45.973Z,23.17
2018-02-10T00:56:12.205Z,26.27
2018-02-10T00:58:39.006Z,26.37
2018-02-10T01:01:06.453Z,22.73
2018-02-10T01:03:33.423Z,21.90
2018-02-10T01:05:59.679Z,23.13
2018-02-10T01:08:25.934Z,26.50
2018-02-10T01:10:52.177Z,22.60
2018-02-10T01:13:18.577Z,25.00
2018-02-10T01:15:45.085Z,24.53
2018-02-10T01:18:12.513Z,23.90
2018-02-10T01:20:39.302Z,21.57
2018-02-10T01:23:06.300Z,22.13
2018-02-10T01:25:32.995Z,19.60
2018-02-10T01:28:00.309Z,20.83
2018-02-10T01:30:26.974Z,23.07
2018-02-10T01:32:53.581Z,17.50
2018-02-10T01:35:20.422Z,23.07
2018-02-10T01:37:47.033Z,23.07
2018-02-10T01:40:14.022Z,21.17
2018-02-10T01:42:40.709Z,20.10
2018-02-10T01:45:06.937Z,19.10
2018-02-10T01:47:33.536Z,23.83
2018-02-10T01:50:12.656Z,22.77
2018-02-10T01:52:39.437Z,19.07
2018-02-10T01:55:05.681Z,24.70
2018-02-10T01:57:31.937Z,23.77
2018-02-10T01:59:59.150Z,24.77
2018-02-10T02:02:25.464Z,24.30
2018-02-10T02:04:52.669Z,25.30
2018-02-10T02:07:18.938Z,23.00
2018-02-10T02:09:45.917Z,25.43
2018-02-10T02:12:12.182Z,26.50
2018-02-10T02:14:38.727Z,25.67
2018-02-10T02:17:05.809Z,28.93
2018-02-10T02:19:34.025Z,26.10
2018-02-10T02:22:00.265Z,24.60
2018-02-10T02:24:26.899Z,25.87
2018-02-10T02:26:53.606Z,26.37
2018-02-10T02:29:21.170Z,25.73
2018-02-10T02:31:48.838Z,26.03
2018-02-10T02:34:15.820Z,28.07
2018-02-10T02:36:42.742Z,28.27
2018-02-10T02:39:09.726Z,25.90
2018-02-10T02:41:36.023Z,23.50
2018-02-10T02:44:03.014Z,26.20
2018-02-10T02:46:29.925Z,25.70
2018-02-10T02:48:57.693Z,23.30
2018-02-10T02:51:23.928Z,26.27
2018-02-10T02:53:50.911Z,22.63
2018-02-10T02:56:17.422Z,25.03
2018-02-10T02:58:43.701Z,24.10
2018-02-10T03:01:10.368Z,28.93
2018-02-10T03:03:36.633Z,29.23
2018-02-10T03:06:02.872Z,24.50
2018-02-10T03:08:30.493Z,27.60
2018-02-10T03:10:56.736Z,26.60
2018-02-10T03:13:23.389Z,23.37
2018-02-10T03:15:50.029Z,20.17
2018-02-10T03:18:16.272Z,24.43
2018-02-10T03:20:43.199Z,24.70
2018-02-10T03:23:09.885Z,25.90
2018-02-10T03:25:37.552Z,30.57
2018-02-10T03:28:04.886Z,30.57
2018-02-10T03:30:31.660Z,28.87
2018-02-10T03:32:59.119Z,29.30
2018-02-10T03:35:26.104Z,29.97
2018-02-10T03:37:52.909Z,29.77
2018-02-10T03:40:19.894Z,32.03
2018-02-10T03:42:46.176Z,28.40
2018-02-10T03:45:13.925Z,30.63
2018-02-10T03:47:41.240Z,28.73
2018-02-10T03:50:08.221Z,30.43
2018-02-10T03:52:35.024Z,32.83
2018-02-10T03:55:02.006Z,26.60
2018-02-10T03:57:28.939Z,27.67
2018-02-10T03:59:55.941Z,30.13
2018-02-10T04:02:22.247Z,32.03
2018-02-10T04:04:49.293Z,29.13
2018-02-10T04:07:15.909Z,30.37
2018-02-10T04:09:43.229Z,29.33
2018-02-10T04:12:09.901Z,32.33
2018-02-10T04:14:38.069Z,30.90
2018-02-10T04:17:04.936Z,31.23
2018-02-10T04:19:31.784Z,27.77
2018-02-10T04:21:58.768Z,27.87
2018-02-10T04:24:25.592Z,32.40
2018-02-10T04:26:53.267Z,31.77
2018-02-10T04:29:20.342Z,30.00
2018-02-10T04:31:47.977Z,31.90
2018-02-10T04:34:14.987Z,33.33
2018-02-10T04:36:41.773Z,29.80
2018-02-10T04:39:08.757Z,25.83
2018-02-10T04:41:34.997Z,29.83
2018-02-10T04:44:01.917Z,30.00
2018-02-10T04:46:29.685Z,26.57
2018-02-10T04:48:56.656Z,28.57
2018-02-10T04:51:22.973Z,33.23
2018-02-10T04:53:49.973Z,27.80
2018-02-10T04:56:16.224Z,34.90
2018-02-10T04:58:42.541Z,31.60
2018-02-10T05:01:09.437Z,30.00
2018-02-10T05:03:36.420Z,31.27
2018-02-10T05:06:02.665Z,29.97
2018-02-10T05:08:29.670Z,28.80
2018-02-10T05:10:57.277Z,31.43
2018-02-10T05:13:23.568Z,30.57
2018-02-10T05:15:50.541Z,28.47
2018-02-10T05:18:17.789Z,29.70
2018-02-10T05:20:45.157Z,30.00
2018-02-10T05:23:12.605Z,31.50
2018-02-10T05:25:40.262Z,30.00
2018-02-10T05:28:07.846Z,29.87
2018-02-10T05:30:35.415Z,29.50
2018-02-10T05:33:02.721Z,32.30
2018-02-10T05:35:28.990Z,29.90
2018-02-10T05:37:55.837Z,29.37
2018-02-10T05:40:22.829Z,31.13
2018-02-10T05:42:49.497Z,30.30
2018-02-10T05:45:16.093Z,29.40
2018-02-10T05:47:43.702Z,29.50
2018-02-10T05:50:09.934Z,29.40
2018-02-10T05:52:36.942Z,27.20
2018-02-10T05:55:04.268Z,22.17
2018-02-10T05:57:30.635Z,24.93
2018-02-10T05:59:57.614Z,22.50
2018-02-10T06:02:24.318Z,22.77
2018-02-10T06:04:51.894Z,19.97
2018-02-10T06:07:19.198Z,23.77
2018-02-10T06:09:45.754Z,21.17
2018-02-10T06:12:12.004Z,20.20
2018-02-10T06:14:38.822Z,18.47
2018-02-10T06:17:05.065Z,21.30
2018-02-10T06:19:31.750Z,26.80
2018-02-10T06:21:58.766Z,25.77
2018-02-10T06:24:25.009Z,25.80
2018-02-10T06:26:51.614Z,29.30
2018-02-10T06:29:18.198Z,28.27
2018-02-10T06:31:44.827Z,27.03
2018-02-10T06:34:11.606Z,33.50
2018-02-10T06:36:38.964Z,34.50
2018-02-10T06:39:05.965Z,32.80
2018-02-10T06:41:32.257Z,27.80
2018-02-10T06:43:59.271Z,29.03
2018-02-10T06:46:26.028Z,23.63
2018-02-10T06:48:52.790Z,24.33
2018-02-10T06:51:19.782Z,29.43
2018-02-10T06:53:46.032Z,28.47
2018-02-10T06:56:12.814Z,26.60
2018-02-10T06:58:39.057Z,31.83
2018-02-10T07:01:06.041Z,37.53
2018-02-10T07:03:35.937Z,35.23
2018-02-10T07:06:03.806Z,33.27
2018-02-10T07:08:30.047Z,30.40
2018-02-10T07:10:57.033Z,24.27
2018-02-10T07:13:23.846Z,27.27
2018-02-10T07:15:51.289Z,32.70
2018-02-10T07:18:17.953Z,30.40
2018-02-10T07:20:45.393Z,31.27
2018-02-10T07:23:12.119Z,32.13
2018-02-10T07:25:38.806Z,29.60
2018-02-10T07:28:06.313Z,33.30
2018-02-10T07:30:33.310Z,29.07
2018-02-10T07:33:00.993Z,25.80
2018-02-10T07:35:27.973Z,28.37
2018-02-10T07:37:54.777Z,22.50
2018-02-10T07:40:21.781Z,26.53
2018-02-10T07:42:48.025Z,26.77
2018-02-10T07:45:14.806Z,23.70
2018-02-10T07:47:42.277Z,26.70
2018-02-10T07:50:09.262Z,34.10
2018-02-10T07:52:35.505Z,33.17
2018-02-10T07:55:01.750Z,29.77
2018-02-10T07:57:28.613Z,24.93
2018-02-10T07:59:55.623Z,33.30
2018-02-10T08:02:22.544Z,26.97
2018-02-10T08:04:49.524Z,27.00
2018-02-10T08:07:15.788Z,31.90
2018-02-10T08:09:42.086Z,34.67
2018-02-10T08:12:08.341Z,32.13
2018-02-10T08:14:35.357Z,30.60
2018-02-10T08:17:02.342Z,27.33
2018-02-10T08:19:29.001Z,32.60
2018-02-10T08:21:56.005Z,28.70
2018-02-10T08:24:23.000Z,26.50
2018-02-10T08:26:49.797Z,27.03
2018-02-10T08:29:16.787Z,34.07
2018-02-10T08:31:43.799Z,28.00
2018-02-10T08:34:11.254Z,32.77
2018-02-10T08:36:38.920Z,32.00
2018-02-10T08:39:05.901Z,33.07
2018-02-10T08:41:32.705Z,29.87
2018-02-10T08:43:58.952Z,33.90
2018-02-10T08:46:25.224Z,27.77
2018-02-10T08:48:51.838Z,26.90
2018-02-10T08:51:18.857Z,27.10
2018-02-10T08:53:45.113Z,27.07
2018-02-10T08:56:11.742Z,30.97
2018-02-10T08:58:38.522Z,33.23
2018-02-10T09:01:06.127Z,33.83
2018-02-10T09:03:32.377Z,29.07
2018-02-10T09:05:58.624Z,29.33
2018-02-10T09:08:24.889Z,30.17
2018-02-10T09:10:52.341Z,29.10
2018-02-10T09:13:18.945Z,28.40
2018-02-10T09:15:45.217Z,29.40
2018-02-10T09:18:11.858Z,29.27
2018-02-10T09:20:38.513Z,25.30
2018-02-10T09:23:05.965Z,24.70
2018-02-10T09:25:32.661Z,26.03
2018-02-10T09:27:59.279Z,28.83
2018-02-10T09:30:25.901Z,29.53
2018-02-10T09:32:53.470Z,29.10
2018-02-10T09:35:20.466Z,29.40
2018-02-10T09:37:47.136Z,32.07
2018-02-10T09:40:14.517Z,32.20
2018-02-10T09:42:40.783Z,26.10
2018-02-10T09:45:07.026Z,25.47
2018-02-10T09:47:33.760Z,32.07
2018-02-10T09:50:00.079Z,31.57
2018-02-10T09:52:27.061Z,32.23
2018-02-10T09:54:53.985Z,30.97
2018-02-10T09:57:21.744Z,31.93
2018-02-10T09:59:48.793Z,31.97
2018-02-10T10:02:15.172Z,32.40
2018-02-10T10:04:42.078Z,27.83
2018-02-10T10:07:08.318Z,28.93
2018-02-10T10:09:35.983Z,29.40
2018-02-10T10:12:02.970Z,24.40
2018-02-10T10:14:29.213Z,27.13
2018-02-10T10:16:56.009Z,31.70
2018-02-10T10:19:22.879Z,30.83
2018-02-10T10:21:49.213Z,25.83
2018-02-10T10:24:16.701Z,25.17
2018-02-10T10:26:43.509Z,31.57
2018-02-10T10:29:10.506Z,30.20
2018-02-10T10:31:37.512Z,28.33
2018-02-10T10:34:04.977Z,26.07
2018-02-10T10:36:32.430Z,22.93
2018-02-10T10:38:58.672Z,26.83
2018-02-10T10:41:25.661Z,25.57
2018-02-10T10:43:52.024Z,26.70
2018-02-10T10:46:18.264Z,28.57
2018-02-10T10:48:45.241Z,32.77
2018-02-10T10:51:11.514Z,29.60
2018-02-10T10:53:38.334Z,30.20
2018-02-10T10:56:05.688Z,30.40
2018-02-10T10:58:32.673Z,26.40
2018-02-10T11:00:58.925Z,22.03
2018-02-10T11:03:25.629Z,21.07
2018-02-10T11:05:53.913Z,23.30
2018-02-10T11:08:21.355Z,26.83
2018-02-10T11:10:47.616Z,26.37
2018-02-10T11:13:13.867Z,28.97
2018-02-10T11:15:40.577Z,28.53
2018-02-10T11:18:07.566Z,25.40
2018-02-10T11:20:34.248Z,23.00
2018-02-10T11:23:01.614Z,23.80
2018-02-10T11:25:28.433Z,26.50
2018-02-10T11:27:54.684Z,28.17
2018-02-10T11:30:21.236Z,26.57
2018-02-10T11:32:48.206Z,21.40
2018-02-10T11:35:14.488Z,21.83
2018-02-10T11:37:41.389Z,26.00
2018-02-10T11:40:08.387Z,26.03
2018-02-10T11:42:34.638Z,24.40
2018-02-10T11:45:01.736Z,21.40
2018-02-10T11:47:29.194Z,18.00
2018-02-10T11:49:56.969Z,23.53
2018-02-10T11:52:23.951Z,22.00
2018-02-10T11:54:50.606Z,23.40
2018-02-10T11:57:16.847Z,21.90
2018-02-10T11:59:43.112Z,19.83
2018-02-10T12:02:09.383Z,25.03
2018-02-10T12:04:36.101Z,24.70
2018-02-10T12:07:03.064Z,24.17
2018-02-10T12:09:30.467Z,24.37
2018-02-10T12:11:57.165Z,24.70
2018-02-10T12:14:24.142Z,24.20
2018-02-10T12:16:50.389Z,19.70
2018-02-10T12:19:16.973Z,20.50
2018-02-10T12:21:43.952Z,21.97
2018-02-10T12:24:11.381Z,19.23
2018-02-10T12:26:38.841Z,24.37
2018-02-10T12:29:05.461Z,19.17
2018-02-10T12:31:33.187Z,18.13
2018-02-10T12:34:00.518Z,19.33
2018-02-10T12:36:27.280Z,21.93
2018-02-10T12:38:54.294Z,21.13
2018-02-10T12:41:20.534Z,18.10
2018-02-10T12:43:47.189Z,21.30
2018-02-10T12:46:14.917Z,21.53
2018-02-10T12:49:00.759Z,15.77
2018-02-10T12:51:28.094Z,18.20
2018-02-10T12:53:55.273Z,17.90
2018-02-10T12:56:22.772Z,18.47
2018-02-10T12:58:49.029Z,15.50
2018-02-10T13:01:16.830Z,18.37
2018-02-10T13:03:43.584Z,16.17
2018-02-10T13:06:10.569Z,18.43
2018-02-10T13:08:36.816Z,16.57
2018-02-10T13:11:03.685Z,16.27
2018-02-10T13:13:30.454Z,19.03
2018-02-10T13:15:56.699Z,18.30
2018-02-10T13:18:23.649Z,15.73
2018-02-10T13:20:50.497Z,16.17
2018-02-10T13:23:17.245Z,17.60
2018-02-10T13:25:44.973Z,18.27
2018-02-10T13:28:11.608Z,21.37
2018-02-10T13:30:37.886Z,17.67
2018-02-10T13:33:04.649Z,16.50
2018-02-10T13:35:31.701Z,16.60
2018-02-10T13:37:59.261Z,19.20
2018-02-10T13:40:26.598Z,20.33
2018-02-10T13:42:54.114Z,18.90
2018-02-10T13:45:21.057Z,19.30
2018-02-10T13:47:47.894Z,15.43
2018-02-10T13:50:14.873Z,15.67
2018-02-10T13:52:41.119Z,17.17
2018-02-10T13:55:07.382Z,19.37
2018-02-10T13:57:35.160Z,17.57
2018-02-10T14:00:02.065Z,19.20
2018-02-10T14:02:28.318Z,19.17
2018-02-10T14:04:54.565Z,18.27
2018-02-10T14:07:22.213Z,21.23
2018-02-10T14:09:48.457Z,20.70
2018-02-10T14:12:14.700Z,19.90
2018-02-10T14:14:42.448Z,19.37
2018-02-10T14:17:09.233Z,19.60
2018-02-10T14:19:36.737Z,20.47
2018-02-10T14:22:03.037Z,18.53
2018-02-10T14:24:30.069Z,23.27
2018-02-10T14:26:57.589Z,21.00
2018-02-10T14:29:24.289Z,17.40
2018-02-10T14:31:50.529Z,22.27
2018-02-10T14:34:17.856Z,22.77
2018-02-10T14:36:44.901Z,19.63
2018-02-10T14:39:11.150Z,21.70
2018-02-10T14:41:38.018Z,18.70
2018-02-10T14:44:05.070Z,20.23
2018-02-10T14:46:31.823Z,20.87
2018-02-10T14:48:59.432Z,22.00
2018-02-10T14:51:25.671Z,21.13
2018-02-10T14:53:51.912Z,18.80
2018-02-10T14:56:18.397Z,19.20
2018-02-10T14:58:45.958Z,17.97
2018-02-10T15:01:12.606Z,18.40
2018-02-10T15:03:39.665Z,17.90
2018-02-10T15:06:07.529Z,22.87
2018-02-10T15:08:34.509Z,19.43
2018-02-10T15:11:00.766Z,19.27
2018-02-10T15:13:27.029Z,19.50
2018-02-10T15:15:54.769Z,14.20
2018-02-10T15:18:21.216Z,15.63
2018-02-10T15:20:48.101Z,21.50
2018-02-10T15:23:15.777Z,18.00
2018-02-10T15:25:44.021Z,14.57
2018-02-10T15:28:10.297Z,14.20
2018-02-10T15:30:49.816Z,15.70
2018-02-10T15:33:28.776Z,14.57
2018-02-10T15:35:55.497Z,14.37
2018-02-10T15:38:22.470Z,12.60
2018-02-10T15:40:49.054Z,12.63
2018-02-10T15:43:16.038Z,14.13
2018-02-10T15:45:43.809Z,16.77
2018-02-10T15:48:11.326Z,18.70
2018-02-10T15:53:39.678Z,20.83
2018-02-10T15:56:06.425Z,20.10
2018-02-10T15:58:32.661Z,21.63
2018-02-10T16:00:59.393Z,18.77
2018-02-10T16:03:26.174Z,15.30
2018-02-10T16:05:53.165Z,17.30
2018-02-10T16:08:19.408Z,18.83
2018-02-10T16:10:45.949Z,15.80
2018-02-10T16:13:13.509Z,21.87
2018-02-10T16:15:40.413Z,19.60
2018-02-10T16:18:07.774Z,17.60
2018-02-10T16:20:35.205Z,15.77
2018-02-10T16:25:58.709Z,16.03
2018-02-10T16:28:26.053Z,15.40
2018-02-10T16:30:53.027Z,13.90
2018-02-10T16:33:20.569Z,12.63
2018-02-10T16:35:46.814Z,15.33
2018-02-10T16:38:13.576Z,15.50
2018-02-10T16:40:41.431Z,18.00
2018-02-10T16:43:07.697Z,18.10
2018-02-10T16:45:33.958Z,13.77
2018-02-10T16:48:00.860Z,12.20
2018-02-10T16:50:27.849Z,13.20
2018-02-10T16:52:55.069Z,15.37
2018-02-10T16:55:22.055Z,15.70
2018-02-10T16:57:48.301Z,13.23
2018-02-10T17:00:15.217Z,13.37
2018-02-10T17:02:41.478Z,14.13
2018-02-10T17:05:07.726Z,15.23
2018-02-10T17:07:34.189Z,15.80
2018-02-10T17:10:00.861Z,17.23
2018-02-10T17:12:27.846Z,17.93
2018-02-10T17:14:54.073Z,16.57
2018-02-10T17:17:20.577Z,13.43
2018-02-10T17:19:47.917Z,17.50
2018-02-10T17:22:14.165Z,19.33
2018-02-10T17:24:41.963Z,20.30
2018-02-10T17:27:08.726Z,20.87
2018-02-10T17:29:34.985Z,19.80
2018-02-10T17:32:01.770Z,21.40
2018-02-10T17:34:29.240Z,20.77
2018-02-10T17:36:56.586Z,19.67
2018-02-10T17:39:23.225Z,15.30
2018-02-10T17:41:49.985Z,19.83
2018-02-10T17:44:16.968Z,18.80
2018-02-10T17:46:43.838Z,14.37
2018-02-10T17:49:10.582Z,13.50
2018-02-10T17:51:37.975Z,17.50
2018-02-10T17:54:04.233Z,16.57
2018-02-10T17:56:31.222Z,14.90
2018-02-10T17:58:58.003Z,14.40
2018-02-10T18:01:24.654Z,14.73
2018-02-10T18:03:51.255Z,19.40
2018-02-10T18:06:17.502Z,18.00
2018-02-10T18:08:43.758Z,22.57
2018-02-10T18:11:10.037Z,16.30
2018-02-10T18:13:36.278Z,14.40
2018-02-10T18:16:02.614Z,16.87
2018-02-10T18:18:29.298Z,14.90
2018-02-10T18:20:56.034Z,18.87
2018-02-10T18:23:22.310Z,16.77
2018-02-10T18:25:49.869Z,16.77
2018-02-10T18:28:16.753Z,13.40
2018-02-10T18:30:43.464Z,13.57
2018-02-10T18:33:11.054Z,13.60
2018-02-10T18:35:37.310Z,15.80
2018-02-10T18:38:04.102Z,14.20
2018-02-10T18:40:31.680Z,13.47
2018-02-10T18:42:58.658Z,12.47
2018-02-10T18:45:25.452Z,16.43
2018-02-10T18:47:52.086Z,17.60
2018-02-10T18:50:18.913Z,14.87
2018-02-10T18:52:45.718Z,12.13
2018-02-10T18:55:13.134Z,14.87
2018-02-10T18:57:39.383Z,13.93
2018-02-10T19:00:06.238Z,14.37
2018-02-10T19:02:33.825Z,13.53
2018-02-10T19:05:01.286Z,13.10
2018-02-10T19:07:28.265Z,15.07
2018-02-10T19:09:54.526Z,14.37
2018-02-10T19:12:20.790Z,14.07
2018-02-10T19:14:47.821Z,13.40
2018-02-10T19:17:14.599Z,15.20
2018-02-10T19:19:42.169Z,12.90
2018-02-10T19:22:09.622Z,13.93
2018-02-10T19:24:35.919Z,13.17
2018-02-10T19:27:02.651Z,13.60
2018-02-10T19:29:29.313Z,14.40
2018-02-10T19:31:56.197Z,14.87
2018-02-10T19:34:22.908Z,17.93
2018-02-10T19:36:49.569Z,18.40
2018-02-10T19:39:16.213Z,20.37
2018-02-10T19:41:43.007Z,15.70
2018-02-10T19:44:09.256Z,18.93
2018-02-10T19:46:35.974Z,18.10
2018-02-10T19:49:02.815Z,21.30
2018-02-10T19:51:30.596Z,13.87
2018-02-10T19:53:57.348Z,16.40
2018-02-10T19:56:23.617Z,16.73
2018-02-10T19:58:49.861Z,17.43
2018-02-10T20:01:17.769Z,15.23
2018-02-10T20:03:45.367Z,15.20
2018-02-10T20:06:11.643Z,14.33
2018-02-10T20:08:37.965Z,13.47
2018-02-10T20:11:04.232Z,15.07
2018-02-10T20:13:31.620Z,12.50
2018-02-10T20:15:57.878Z,14.30
2018-02-10T20:18:24.169Z,13.63
2018-02-10T20:20:51.606Z,14.87
2018-02-10T20:23:17.846Z,18.93
2018-02-10T20:25:46.148Z,17.63
2018-02-10T20:28:13.608Z,15.97
2018-02-10T20:30:40.611Z,14.33
2018-02-10T20:33:07.456Z,14.07
2018-02-10T20:35:34.128Z,15.90
2018-02-10T20:38:00.783Z,16.87
2018-02-10T20:40:28.557Z,16.10
2018-02-10T20:42:55.240Z,14.80
2018-02-10T20:45:22.161Z,15.83
2018-02-10T20:47:49.723Z,14.97
2018-02-10T20:50:16.709Z,14.90
2018-02-10T20:52:43.622Z,15.57
2018-02-10T20:55:10.616Z,17.27
2018-02-10T20:57:36.889Z,15.77
2018-02-10T21:00:03.176Z,18.20
2018-02-10T21:02:29.905Z,17.40
2018-02-10T21:04:56.145Z,15.57
2018-02-10T21:07:22.398Z,11.93
2018-02-10T21:09:49.819Z,13.20
2018-02-10T21:12:16.868Z,15.47
2018-02-10T21:14:43.802Z,12.47
2018-02-10T21:17:10.046Z,12.20
2018-02-10T21:19:37.489Z,13.77
2018-02-10T21:22:03.748Z,15.67
2018-02-10T21:24:30.737Z,12.80
2018-02-10T21:26:57.441Z,14.27
2018-02-10T21:29:24.918Z,15.90
2018-02-10T21:31:51.757Z,16.70
2018-02-10T21:34:19.320Z,16.67
2018-02-10T21:36:46.792Z,12.13
2018-02-10T21:39:14.204Z,12.80
2018-02-10T21:41:41.210Z,15.70
2018-02-10T21:44:08.199Z,16.10
2018-02-10T21:46:35.205Z,19.03
2018-02-10T21:49:02.189Z,17.40
2018-02-10T21:51:28.437Z,15.13
2018-02-10T21:53:55.022Z,12.73
2018-02-10T21:56:22.489Z,12.93
2018-02-10T21:58:50.149Z,15.70
2018-02-10T22:01:17.312Z,11.93
2018-02-10T22:03:44.609Z,13.30
2018-02-10T22:06:10.886Z,13.60
2018-02-10T22:08:37.445Z,13.33
2018-02-10T22:11:04.446Z,16.20
2018-02-10T22:13:30.712Z,16.50
2018-02-10T22:15:57.368Z,17.70
2018-02-10T22:18:24.365Z,13.60
2018-02-10T22:20:50.934Z,13.40
2018-02-10T22:23:17.819Z,17.20
2018-02-10T22:25:45.269Z,15.40
2018-02-10T22:28:12.773Z,12.20
2018-02-10T22:30:39.523Z,12.23
2018-02-10T22:33:06.349Z,16.73
2018-02-10T22:35:33.885Z,12.50
2018-02-10T22:38:00.749Z,11.90
2018-02-10T22:40:28.134Z,12.00
2018-02-10T22:42:56.289Z,13.37
2018-02-10T22:45:23.277Z,11.37
2018-02-10T22:47:49.976Z,11.80
2018-02-10T22:50:16.966Z,9.80
2018-02-10T22:52:43.893Z,9.37
2018-02-10T22:55:10.888Z,11.40
2018-02-10T22:57:37.136Z,10.40
2018-02-10T23:00:03.717Z,12.73
2018-02-10T23:02:31.336Z,15.47
2018-02-10T23:04:57.581Z,13.40
2018-02-10T23:07:23.853Z,12.00
2018-02-10T23:09:50.856Z,15.13
2018-02-10T23:12:17.117Z,13.23
2018-02-10T23:14:43.464Z,12.03
2018-02-10T23:17:10.104Z,15.60
2018-02-10T23:19:37.463Z,13.23
2018-02-10T23:22:05.125Z,10.57
2018-02-10T23:24:32.002Z,13.20
2018-02-10T23:26:59.445Z,15.40
2018-02-10T23:29:26.432Z,15.67
2018-02-10T23:31:52.688Z,15.90
2018-02-10T23:34:19.805Z,13.40
2018-02-10T23:36:47.267Z,10.10
2018-02-10T23:39:13.541Z,13.43
2018-02-10T23:41:39.952Z,11.43
2018-02-10T23:44:06.467Z,14.07
2018-02-10T23:46:33.896Z,11.30
2018-02-10T23:49:00.157Z,12.97
2018-02-10T23:51:27.152Z,11.50
2018-02-10T23:53:53.413Z,10.00
2018-02-10T23:56:19.669Z,10.80
2018-02-10T23:58:46.021Z,12.10
